createdAt,value
2022-09-09T00:01:56.199Z,17.02
2022-09-09T00:04:29.995Z,17.04
2022-09-09T00:07:06.811Z,17.06
2022-09-09T00:09:46.273Z,17.06
2022-09-09T00:12:19.236Z,17.11
2022-09-09T00:14:53.577Z,17.14
2022-09-09T00:17:35.598Z,17.13
2022-09-09T00:20:14.046Z,17.15
2022-09-09T00:22:48.448Z,17.18
2022-09-09T00:25:24.159Z,17.19
2022-09-09T00:27:53.441Z,17.20
2022-09-09T00:30:25.121Z,17.20
2022-09-09T00:32:59.172Z,17.21
2022-09-09T00:35:32.152Z,17.20
2022-09-09T00:38:11.493Z,17.19
2022-09-09T00:40:50.977Z,17.18
2022-09-09T00:43:32.501Z,17.17
2022-09-09T00:46:42.144Z,17.16
2022-09-09T00:49:24.040Z,17.14
2022-09-09T00:52:06.302Z,17.11
2022-09-09T00:54:46.746Z,17.08
2022-09-09T00:57:29.128Z,17.03
2022-09-09T01:00:21.897Z,17.00
2022-09-09T01:03:13.260Z,16.95
2022-09-09T01:05:51.831Z,16.95
2022-09-09T01:08:40.409Z,16.93
2022-09-09T01:11:17.936Z,16.95
2022-09-09T01:13:49.134Z,16.97
2022-09-09T01:16:18.917Z,16.96
2022-09-09T01:18:51.658Z,16.96
2022-09-09T01:21:32.038Z,16.96
2022-09-09T01:24:22.487Z,16.94
2022-09-09T01:27:09.856Z,16.93
2022-09-09T01:29:38.692Z,16.91
2022-09-09T01:32:43.250Z,16.90
2022-09-09T01:35:21.420Z,16.89
2022-09-09T01:37:50.086Z,16.90
2022-09-09T01:40:19.164Z,16.92
2022-09-09T01:42:51.071Z,16.94
2022-09-09T01:45:19.664Z,16.95
2022-09-09T01:47:49.056Z,16.96
2022-09-09T01:50:35.190Z,16.95
2022-09-09T01:53:04.892Z,16.93
2022-09-09T01:55:41.440Z,16.93
2022-09-09T01:58:31.377Z,16.91
2022-09-09T02:01:12.296Z,16.91
2022-09-09T02:03:42.876Z,16.88
2022-09-09T02:06:29.609Z,16.86
2022-09-09T02:09:09.481Z,16.84
2022-09-09T02:11:37.968Z,16.80
2022-09-09T02:14:25.720Z,16.77
2022-09-09T02:17:00.172Z,16.76
2022-09-09T02:19:43.160Z,16.75
2022-09-09T02:22:26.199Z,16.74
2022-09-09T02:24:59.417Z,16.72
2022-09-09T02:27:30.474Z,16.71
2022-09-09T02:30:03.049Z,16.69
2022-09-09T02:32:44.507Z,16.67
2022-09-09T02:35:19.481Z,16.66
2022-09-09T02:37:48.693Z,16.66
2022-09-09T02:40:18.570Z,16.66
2022-09-09T02:42:51.684Z,16.66
2022-09-09T02:45:29.390Z,16.66
2022-09-09T02:48:11.564Z,16.66
2022-09-09T02:50:49.261Z,16.69
2022-09-09T02:53:22.948Z,16.71
2022-09-09T02:55:59.464Z,16.75
2022-09-09T02:58:28.236Z,16.79
2022-09-09T03:01:03.908Z,16.83
2022-09-09T03:03:33.633Z,16.85
2022-09-09T03:06:06.670Z,16.88
2022-09-09T03:08:35.207Z,16.90
2022-09-09T03:11:03.589Z,16.91
2022-09-09T03:13:35.334Z,16.92
2022-09-09T03:16:06.649Z,16.92
2022-09-09T03:18:40.536Z,16.92
2022-09-09T03:21:09.340Z,16.89
2022-09-09T03:23:39.219Z,16.86
2022-09-09T03:26:08.252Z,16.83
2022-09-09T03:28:42.676Z,16.76
2022-09-09T03:31:13.026Z,16.67
2022-09-09T03:33:43.421Z,16.60
2022-09-09T03:36:15.019Z,16.56
2022-09-09T03:38:43.304Z,16.53
2022-09-09T03:41:13.747Z,16.54
2022-09-09T03:43:42.843Z,16.53
2022-09-09T03:46:12.738Z,16.54
2022-09-09T03:48:41.341Z,16.54
2022-09-09T03:51:09.546Z,16.55
2022-09-09T03:53:39.092Z,16.53
2022-09-09T03:56:09.185Z,16.51
2022-09-09T03:58:39.004Z,16.47
2022-09-09T04:01:14.366Z,16.44
2022-09-09T04:03:45.611Z,16.40
2022-09-09T04:06:16.032Z,16.36
2022-09-09T04:08:49.489Z,16.33
2022-09-09T04:11:17.908Z,16.30
2022-09-09T04:13:48.015Z,16.25
2022-09-09T04:16:17.810Z,16.22
2022-09-09T04:18:46.650Z,16.20
2022-09-09T04:21:17.101Z,16.17
2022-09-09T04:23:45.299Z,16.16
2022-09-09T04:26:16.325Z,16.15
2022-09-09T04:28:46.675Z,16.16
2022-09-09T04:31:24.446Z,16.15
2022-09-09T04:33:56.020Z,16.15
2022-09-09T04:36:24.795Z,16.15
2022-09-09T04:38:57.002Z,16.15
2022-09-09T04:41:25.595Z,16.15
2022-09-09T04:43:57.962Z,16.16
2022-09-09T04:46:27.752Z,16.19
2022-09-09T04:48:56.000Z,16.20
2022-09-09T04:51:29.214Z,16.22
2022-09-09T04:53:57.855Z,16.23
2022-09-09T04:56:27.854Z,16.25
2022-09-09T04:58:59.415Z,16.26
2022-09-09T05:01:42.104Z,16.30
2022-09-09T05:04:10.599Z,16.33
2022-09-09T05:06:38.903Z,16.33
2022-09-09T05:09:07.560Z,16.34
2022-09-09T05:11:37.690Z,16.36
2022-09-09T05:14:25.047Z,16.34
2022-09-09T05:16:55.131Z,16.34
2022-09-09T05:19:24.889Z,16.34
2022-09-09T05:21:54.701Z,16.34
2022-09-09T05:24:29.470Z,16.29
2022-09-09T05:27:02.601Z,16.29
2022-09-09T05:29:31.154Z,16.28
2022-09-09T05:32:01.090Z,16.31
2022-09-09T05:34:30.154Z,16.35
2022-09-09T05:36:59.464Z,16.40
2022-09-09T05:39:28.461Z,16.46
2022-09-09T05:41:56.663Z,16.50
2022-09-09T05:44:28.563Z,16.53
2022-09-09T05:46:58.507Z,16.56
2022-09-09T05:49:28.270Z,16.60
2022-09-09T05:51:56.924Z,16.62
2022-09-09T05:54:26.235Z,16.64
2022-09-09T05:56:56.620Z,16.66
2022-09-09T05:59:25.505Z,16.69
2022-09-09T06:01:56.647Z,16.73
2022-09-09T06:04:35.160Z,16.76
2022-09-09T06:07:04.184Z,16.78
2022-09-09T06:09:32.671Z,16.79
2022-09-09T06:12:01.298Z,16.81
2022-09-09T06:14:29.723Z,16.82
2022-09-09T06:17:00.984Z,16.84
2022-09-09T06:19:34.433Z,16.88
2022-09-09T06:22:03.414Z,16.95
2022-09-09T06:24:35.243Z,17.03
2022-09-09T06:27:06.313Z,17.12
2022-09-09T06:29:37.099Z,17.21
2022-09-09T06:32:06.021Z,17.29
2022-09-09T06:34:36.511Z,17.34
2022-09-09T06:37:05.729Z,17.38
2022-09-09T06:39:49.283Z,17.42
2022-09-09T06:42:18.012Z,17.44
2022-09-09T06:44:53.243Z,17.49
2022-09-09T06:47:34.600Z,17.54
2022-09-09T06:50:06.339Z,17.61
2022-09-09T06:52:36.363Z,17.66
2022-09-09T06:55:06.320Z,17.72
2022-09-09T06:57:37.933Z,17.74
2022-09-09T07:00:20.957Z,17.75
2022-09-09T07:02:51.959Z,17.76
2022-09-09T07:05:22.220Z,17.78
2022-09-09T07:07:50.483Z,17.78
2022-09-09T07:10:21.247Z,17.82
2022-09-09T07:12:54.055Z,17.83
2022-09-09T07:15:24.437Z,17.79
2022-09-09T07:17:53.096Z,17.84
2022-09-09T07:20:23.013Z,17.86
2022-09-09T07:22:52.052Z,17.84
2022-09-09T07:25:21.882Z,17.84
2022-09-09T07:27:50.564Z,17.90
2022-09-09T07:30:24.271Z,18.00
2022-09-09T07:32:58.102Z,18.12
2022-09-09T07:35:28.808Z,18.21
2022-09-09T07:37:57.088Z,18.31
2022-09-09T07:40:25.724Z,18.36
2022-09-09T07:42:55.150Z,18.39
2022-09-09T07:45:23.858Z,18.43
2022-09-09T07:47:53.682Z,18.46
2022-09-09T07:50:22.398Z,18.52
2022-09-09T07:52:54.409Z,18.54
2022-09-09T07:55:25.101Z,18.82
2022-09-09T07:57:55.008Z,19.54
2022-09-09T08:00:24.625Z,20.32
2022-09-09T08:02:57.075Z,20.95
2022-09-09T08:05:26.023Z,21.59
2022-09-09T08:07:56.001Z,21.88
2022-09-09T08:10:25.101Z,21.76
2022-09-09T08:13:16.845Z,21.80
2022-09-09T08:15:45.500Z,21.51
2022-09-09T08:18:14.972Z,21.29
2022-09-09T08:20:43.375Z,21.09
2022-09-09T08:23:13.259Z,20.91
2022-09-09T08:25:41.761Z,20.81
2022-09-09T08:28:11.085Z,20.73
2022-09-09T08:30:39.925Z,20.58
2022-09-09T08:33:09.092Z,20.42
2022-09-09T08:35:37.391Z,20.30
2022-09-09T08:38:10.690Z,20.21
2022-09-09T08:40:45.995Z,20.15
2022-09-09T08:43:18.601Z,20.24
2022-09-09T08:46:00.997Z,20.36
2022-09-09T08:48:53.869Z,20.49
2022-09-09T08:51:22.624Z,20.72
2022-09-09T08:53:57.655Z,21.41
2022-09-09T08:56:33.325Z,22.15
2022-09-09T08:59:05.000Z,22.58
2022-09-09T09:02:02.590Z,23.16
2022-09-09T09:05:01.114Z,23.61
2022-09-09T09:07:46.838Z,24.02
2022-09-09T09:10:42.068Z,24.42
2022-09-09T09:13:21.988Z,24.29
2022-09-09T09:15:59.954Z,23.46
2022-09-09T09:18:29.835Z,22.58
2022-09-09T09:21:06.242Z,21.62
2022-09-09T09:23:44.524Z,20.68
2022-09-09T09:26:13.453Z,20.02
2022-09-09T09:28:43.951Z,19.47
2022-09-09T09:31:17.326Z,18.90
2022-09-09T09:33:53.732Z,18.38
2022-09-09T09:36:35.042Z,18.06
2022-09-09T09:41:56.291Z,18.09
2022-09-09T09:44:29.260Z,18.71
2022-09-09T09:47:10.797Z,19.53
2022-09-09T09:49:40.585Z,19.72
2022-09-09T09:52:19.552Z,19.74
2022-09-09T09:54:48.048Z,20.22
2022-09-09T09:57:18.662Z,20.75
2022-09-09T09:59:50.323Z,20.98
2022-09-09T10:02:27.713Z,21.37
2022-09-09T10:05:06.431Z,21.84
2022-09-09T10:07:38.323Z,22.01
2022-09-09T10:10:15.349Z,22.17
2022-09-09T10:13:00.322Z,22.72
2022-09-09T10:15:46.637Z,23.18
2022-09-09T10:18:40.408Z,23.44
2022-09-09T10:21:44.376Z,23.68
2022-09-09T10:25:07.075Z,23.92
2022-09-09T10:27:45.245Z,23.69
2022-09-09T10:30:20.148Z,23.54
2022-09-09T10:32:56.751Z,23.42
2022-09-09T10:35:34.358Z,23.38
2022-09-09T10:38:19.697Z,23.49
2022-09-09T10:41:20.237Z,23.63
2022-09-09T10:44:36.555Z,23.87
2022-09-09T10:47:21.942Z,24.06
2022-09-09T10:50:24.335Z,24.15
2022-09-09T10:53:04.395Z,24.34
2022-09-09T10:55:43.116Z,24.52
2022-09-09T10:58:20.264Z,24.69
2022-09-09T11:00:57.888Z,24.83
2022-09-09T11:03:32.044Z,24.94
2022-09-09T11:06:06.967Z,25.12
2022-09-09T11:08:40.065Z,25.20
2022-09-09T11:11:17.761Z,24.84
2022-09-09T11:13:52.542Z,24.69
2022-09-09T11:16:30.929Z,24.87
2022-09-09T11:19:06.931Z,25.06
2022-09-09T11:21:43.035Z,25.30
2022-09-09T11:24:18.163Z,25.14
2022-09-09T11:26:53.505Z,25.25
2022-09-09T11:30:27.177Z,24.85
2022-09-09T11:33:50.242Z,24.41
2022-09-09T11:36:57.628Z,24.72
2022-09-09T11:39:55.777Z,24.71
2022-09-09T11:42:26.865Z,24.52
2022-09-09T11:44:55.737Z,24.21
2022-09-09T11:47:30.869Z,23.95
2022-09-09T11:50:13.246Z,23.69
2022-09-09T11:52:46.956Z,23.58
2022-09-09T11:55:30.563Z,23.42
2022-09-09T11:58:01.278Z,23.33
2022-09-09T12:00:39.077Z,23.30
2022-09-09T12:03:09.976Z,23.63
2022-09-09T12:05:41.659Z,23.90
2022-09-09T12:08:13.753Z,23.91
2022-09-09T12:10:42.771Z,23.90
2022-09-09T12:13:20.183Z,23.97
2022-09-09T12:15:54.602Z,23.99
2022-09-09T12:18:26.702Z,23.90
2022-09-09T12:21:04.602Z,23.72
2022-09-09T12:23:48.073Z,23.46
2022-09-09T12:26:32.432Z,23.21
2022-09-09T12:29:14.615Z,23.04
2022-09-09T12:31:50.779Z,22.82
2022-09-09T12:34:33.540Z,22.72
2022-09-09T12:37:08.285Z,22.70
2022-09-09T12:39:43.043Z,22.58
2022-09-09T12:42:20.874Z,22.52
2022-09-09T12:44:58.403Z,22.45
2022-09-09T12:47:41.481Z,22.39
2022-09-09T12:50:20.928Z,22.29
2022-09-09T12:52:51.567Z,22.18
2022-09-09T12:55:26.225Z,22.13
2022-09-09T12:57:54.514Z,22.03
2022-09-09T13:00:26.146Z,21.97
2022-09-09T13:02:57.078Z,21.75
2022-09-09T13:05:27.524Z,20.54
2022-09-09T13:08:04.012Z,19.13
2022-09-09T13:10:52.894Z,18.28
2022-09-09T13:13:27.553Z,17.77
2022-09-09T13:15:59.113Z,17.53
2022-09-09T13:18:32.488Z,17.37
2022-09-09T13:21:01.443Z,17.29
2022-09-09T13:23:33.286Z,17.24
2022-09-09T13:26:08.602Z,17.18
2022-09-09T13:28:37.084Z,17.13
2022-09-09T13:31:08.006Z,17.11
2022-09-09T13:33:38.530Z,17.34
2022-09-09T13:36:10.411Z,17.74
2022-09-09T13:38:42.806Z,18.06
2022-09-09T13:41:13.584Z,18.23
2022-09-09T13:43:48.229Z,18.77
2022-09-09T13:46:31.087Z,19.43
2022-09-09T13:49:00.409Z,19.76
2022-09-09T13:51:38.079Z,19.99
2022-09-09T13:54:08.172Z,20.03
2022-09-09T13:56:39.857Z,20.02
2022-09-09T13:59:13.097Z,20.13
2022-09-09T14:01:41.863Z,20.51
2022-09-09T14:04:11.475Z,20.88
2022-09-09T14:06:41.448Z,21.42
2022-09-09T14:09:13.964Z,22.14
2022-09-09T14:11:44.456Z,22.71
2022-09-09T14:14:12.661Z,22.90
2022-09-09T14:16:40.949Z,22.69
2022-09-09T14:19:10.446Z,22.38
2022-09-09T14:21:38.970Z,22.04
2022-09-09T14:24:08.233Z,21.70
2022-09-09T14:26:36.443Z,21.48
2022-09-09T14:29:06.011Z,21.31
2022-09-09T14:31:34.635Z,21.16
2022-09-09T14:34:03.172Z,20.98
2022-09-09T14:36:31.411Z,20.77
2022-09-09T14:39:00.011Z,20.60
2022-09-09T14:41:30.431Z,20.51
2022-09-09T14:43:59.571Z,20.50
2022-09-09T14:46:29.551Z,20.51
2022-09-09T14:48:57.763Z,20.51
2022-09-09T14:51:28.232Z,20.51
2022-09-09T14:53:59.181Z,20.51
2022-09-09T14:56:30.508Z,20.50
2022-09-09T14:59:01.677Z,20.45
2022-09-09T15:01:33.047Z,20.39
2022-09-09T15:04:03.872Z,20.36
2022-09-09T15:06:34.928Z,20.33
2022-09-09T15:09:04.040Z,20.29
2022-09-09T15:11:38.630Z,20.26
2022-09-09T15:14:07.934Z,20.24
2022-09-09T15:16:38.036Z,20.24
2022-09-09T15:19:06.412Z,20.21
2022-09-09T15:21:37.808Z,20.17
2022-09-09T15:24:08.203Z,20.12
2022-09-09T15:26:39.476Z,20.04
2022-09-09T15:29:08.982Z,19.98
2022-09-09T15:31:38.853Z,19.95
2022-09-09T15:34:09.612Z,19.91
2022-09-09T15:36:39.301Z,19.81
2022-09-09T15:39:10.591Z,19.74
2022-09-09T15:41:39.267Z,19.68
2022-09-09T15:44:08.135Z,19.57
2022-09-09T15:46:39.275Z,19.60
2022-09-09T15:49:11.460Z,19.76
2022-09-09T15:51:43.599Z,20.00
2022-09-09T15:54:14.203Z,20.11
2022-09-09T15:56:43.624Z,20.18
2022-09-09T15:59:12.202Z,20.21
2022-09-09T16:01:43.086Z,20.20
2022-09-09T16:04:12.215Z,20.15
2022-09-09T16:06:40.950Z,20.12
2022-09-09T16:09:10.959Z,20.08
2022-09-09T16:11:40.867Z,20.02
2022-09-09T16:14:09.630Z,19.98
2022-09-09T16:16:38.228Z,19.89
2022-09-09T16:19:10.546Z,19.80
2022-09-09T16:21:41.829Z,19.70
2022-09-09T16:24:12.810Z,19.59
2022-09-09T16:26:43.928Z,19.52
2022-09-09T16:29:12.555Z,19.48
2022-09-09T16:31:41.498Z,19.43
2022-09-09T16:34:11.999Z,19.40
2022-09-09T16:36:42.852Z,19.33
2022-09-09T16:39:14.194Z,19.27
2022-09-09T16:41:46.056Z,19.22
2022-09-09T16:44:17.996Z,19.19
2022-09-09T16:46:49.531Z,19.14
2022-09-09T16:49:19.237Z,19.09
2022-09-09T16:51:49.552Z,19.05
2022-09-09T16:54:19.294Z,19.00
2022-09-09T16:56:50.003Z,18.97
2022-09-09T16:59:22.898Z,18.92
2022-09-09T17:01:53.376Z,18.90
2022-09-09T17:04:27.225Z,18.87
2022-09-09T17:06:56.837Z,18.85
2022-09-09T17:09:29.728Z,18.83
2022-09-09T17:11:58.161Z,18.79
2022-09-09T17:14:26.648Z,18.79
2022-09-09T17:16:54.878Z,18.75
2022-09-09T17:19:24.445Z,18.74
2022-09-09T17:24:41.368Z,18.68
2022-09-09T17:27:10.023Z,18.68
2022-09-09T17:29:38.486Z,18.66
2022-09-09T17:32:08.087Z,18.65
2022-09-09T17:34:38.863Z,18.64
2022-09-09T17:37:07.892Z,18.64
2022-09-09T17:39:36.547Z,18.64
2022-09-09T17:42:05.202Z,18.65
2022-09-09T17:44:34.236Z,18.64
2022-09-09T17:47:04.884Z,18.65
2022-09-09T17:49:33.042Z,18.60
2022-09-09T17:52:02.857Z,18.17
2022-09-09T17:54:31.053Z,17.22
2022-09-09T17:57:00.588Z,16.48
2022-09-09T17:59:29.130Z,16.04
2022-09-09T18:01:57.952Z,15.71
2022-09-09T18:04:26.756Z,15.42
2022-09-09T18:06:55.580Z,15.19
2022-09-09T18:09:27.480Z,14.99
2022-09-09T18:12:00.193Z,14.80
2022-09-09T18:14:32.045Z,14.66
2022-09-09T18:17:01.476Z,14.52
2022-09-09T18:19:32.815Z,14.44
2022-09-09T18:22:02.771Z,14.35
2022-09-09T18:24:33.348Z,14.30
2022-09-09T18:27:01.975Z,14.28
2022-09-09T18:29:31.065Z,14.28
2022-09-09T18:31:59.606Z,14.27
2022-09-09T18:34:30.097Z,14.26
2022-09-09T18:36:58.722Z,14.25
2022-09-09T18:39:29.708Z,14.24
2022-09-09T18:42:01.727Z,14.24
2022-09-09T18:44:33.239Z,14.25
2022-09-09T18:47:03.406Z,14.27
2022-09-09T18:49:33.121Z,14.26
2022-09-09T18:52:02.715Z,14.28
2022-09-09T18:54:33.382Z,14.26
2022-09-09T18:57:03.487Z,14.24
2022-09-09T18:59:32.568Z,14.23
2022-09-09T19:02:00.785Z,14.24
2022-09-09T19:04:29.643Z,14.26
2022-09-09T19:06:58.665Z,14.28
2022-09-09T19:09:29.519Z,14.31
2022-09-09T19:11:58.183Z,14.33
2022-09-09T19:14:28.155Z,14.37
2022-09-09T19:16:56.476Z,14.42
2022-09-09T19:19:27.860Z,14.43
2022-09-09T19:21:57.490Z,14.43
2022-09-09T19:24:28.340Z,14.44
2022-09-09T19:27:01.610Z,14.44
2022-09-09T19:29:34.452Z,14.46
2022-09-09T19:32:49.660Z,14.49
2022-09-09T19:34:52.241Z,14.52
2022-09-09T19:37:20.981Z,14.52
2022-09-09T19:39:50.578Z,14.53
2022-09-09T19:42:18.994Z,14.55
2022-09-09T19:44:50.073Z,14.57
2022-09-09T19:47:19.692Z,14.59
2022-09-09T19:49:48.234Z,14.60
2022-09-09T19:52:17.432Z,14.59
2022-09-09T19:54:46.623Z,14.60
2022-09-09T19:57:16.058Z,14.59
2022-09-09T19:59:44.817Z,14.60
2022-09-09T20:02:16.274Z,14.60
2022-09-09T20:04:45.123Z,14.61
2022-09-09T20:07:14.746Z,14.63
2022-09-09T20:09:43.380Z,14.63
2022-09-09T20:12:12.152Z,14.63
2022-09-09T20:14:40.715Z,14.65
2022-09-09T20:17:09.963Z,14.65
2022-09-09T20:19:40.504Z,14.67
2022-09-09T20:22:09.128Z,14.68
2022-09-09T20:24:37.978Z,14.68
2022-09-09T20:27:08.039Z,14.69
2022-09-09T20:29:37.101Z,14.70
2022-09-09T20:32:06.719Z,14.71
2022-09-09T20:34:35.257Z,14.75
2022-09-09T20:37:05.838Z,14.77
2022-09-09T20:39:35.552Z,14.79
2022-09-09T20:42:04.279Z,14.81
2022-09-09T20:44:33.099Z,14.83
2022-09-09T20:47:06.373Z,14.84
2022-09-09T20:49:36.049Z,14.84
2022-09-09T20:52:06.836Z,14.84
2022-09-09T20:54:35.865Z,14.83
2022-09-09T20:57:04.130Z,14.79
2022-09-09T20:59:32.460Z,14.78
2022-09-09T21:02:01.546Z,14.77
2022-09-09T21:04:31.172Z,14.76
2022-09-09T21:06:59.435Z,14.76
2022-09-09T21:09:29.007Z,14.76
2022-09-09T21:11:57.220Z,14.74
2022-09-09T21:14:25.591Z,14.79
2022-09-09T21:16:54.395Z,14.79
2022-09-09T21:19:22.895Z,14.81
2022-09-09T21:21:51.264Z,14.79
2022-09-09T21:24:19.687Z,14.79
2022-09-09T21:26:49.385Z,14.77
2022-09-09T21:29:17.576Z,14.77
2022-09-09T21:31:46.403Z,14.75
2022-09-09T21:34:15.557Z,14.72
2022-09-09T21:36:44.107Z,14.71
2022-09-09T21:39:12.398Z,14.68
2022-09-09T21:41:41.000Z,14.67
2022-09-09T21:44:14.353Z,14.67
2022-09-09T21:46:43.812Z,14.66
2022-09-09T21:49:12.155Z,14.66
2022-09-09T21:51:40.771Z,14.66
2022-09-09T21:54:09.363Z,14.64
2022-09-09T21:56:38.005Z,14.65
2022-09-09T21:59:06.248Z,14.63
2022-09-09T22:01:35.969Z,14.63
2022-09-09T22:04:04.607Z,14.61
2022-09-09T22:06:33.793Z,14.59
2022-09-09T22:09:03.405Z,14.57
2022-09-09T22:11:32.092Z,14.56
2022-09-09T22:14:00.350Z,14.55
2022-09-09T22:16:28.568Z,14.55
2022-09-09T22:19:01.257Z,14.55
2022-09-09T22:21:33.201Z,14.55
2022-09-09T22:24:04.204Z,14.56
2022-09-09T22:26:36.052Z,14.56
2022-09-09T22:29:05.600Z,14.58
2022-09-09T22:31:36.082Z,14.60
2022-09-09T22:34:06.189Z,14.64
2022-09-09T22:36:34.464Z,14.67
2022-09-09T22:39:02.720Z,14.69
2022-09-09T22:41:31.994Z,14.72
2022-09-09T22:44:00.236Z,14.72
2022-09-09T22:46:28.500Z,14.75
2022-09-09T22:48:57.042Z,14.74
2022-09-09T22:51:28.867Z,14.74
2022-09-09T22:53:57.764Z,14.72
2022-09-09T22:56:26.332Z,14.71
2022-09-09T22:58:56.789Z,14.70
2022-09-09T23:01:27.539Z,14.71
2022-09-09T23:03:59.514Z,14.70
2022-09-09T23:06:31.700Z,14.69
2022-09-09T23:09:02.549Z,14.68
2022-09-09T23:11:34.884Z,14.67
2022-09-09T23:14:06.448Z,14.65
2022-09-09T23:16:39.855Z,14.61
2022-09-09T23:19:10.852Z,14.60
2022-09-09T23:21:42.092Z,14.60
2022-09-09T23:24:12.896Z,14.59
2022-09-09T23:26:41.657Z,14.58
2022-09-09T23:29:14.060Z,14.58
2022-09-09T23:31:45.041Z,14.58
2022-09-09T23:34:13.852Z,14.59
2022-09-09T23:36:43.412Z,14.58
2022-09-09T23:39:14.129Z,14.60
2022-09-09T23:41:42.677Z,14.62
2022-09-09T23:44:12.749Z,14.63
2022-09-09T23:46:41.637Z,14.65
2022-09-09T23:49:10.563Z,14.65
2022-09-09T23:51:39.396Z,14.66
2022-09-09T23:54:09.927Z,14.67
2022-09-09T23:56:42.270Z,14.69
2022-09-09T23:59:10.649Z,14.70
